Terminal Aerodrome Forecast
Issued by NWS Amarillo, TX

Home | Current Version | Previous Version | Text Only | Print | Product List | Glossary On
Versions: 1 2 3 4 5 6 7 8 9 10 11 12 13 14 15 16 17
000
FTUS44 KAMA 251911 AAA
TAFAMA
TAF AMD
KAMA 251911Z 2519/2618 36010KT P6SM SCT060 SCT110
     FM260100 02011KT P6SM SCT020 OVC100
     FM260700 03018G27KT P6SM -SHRA OVC015
     FM261600 34019G28KT P6SM SCT015 SCT120=

USA.gov is the U.S. government's official web portal to all federal, state and local government web resources and services.